Bergamot Ace — ZGAS5 — position and weather

sailwx.info

Track history (hours):
 
Tides and Currents Weather Stations Pressure Air Temp Water Temp Dewpoint Dewpoint Depression Visibility Wind Speed Wind Dir Waves Ship Positions

Bergamot Ace

Last reported at 2015-Jul-31 08:33 UTC. Time now 2015-Aug-03 04:34 UTC.
Position N 03°39' E 100°13'.

Length 186 m; draft 7.7 m.

Type: Ship. MMSI: 319740000.

Date/timePositionNaut miles runAvg speedWind from/ knotsBaromVisibWave heightAir tempDewpointWater temp
2015-Jul-31 08:33N 03°39' E 100°13'4414.5
2015-Jul-31 05:33N 03°07' E 100°43'4715.8
2015-Jul-31 02:33N 02°40' E 101°22'1515.3
2015-Jul-31 01:33N 02°30' E 101°34'4314.3
2015-Jul-30 22:32N 02°03' E 102°08'10016.2
2015-Jul-30 16:20N 01°12' E 103°34'1113.5
2015-Jul-30 15:33N 01°08' E 103°44'1111.2
2015-Jul-30 14:34N 01°13' E 103°54'2 2.3
2015-Jul-30 13:30N 01°16' E 103°54'0 0.0
2015-Jul-30 12:33N 01°16' E 103°54'0 0.0
2015-Jul-30 11:33N 01°16' E 103°54'0 0.0
2015-Jul-30 10:33N 01°16' E 103°54'0 0.0
2015-Jul-30 09:27N 01°16' E 103°54'0 0.0
2015-Jul-30 08:33N 01°16' E 103°54'0 0.0
2015-Jul-30 07:27N 01°16' E 103°54'0 0.0
2015-Jul-30 06:30N 01°16' E 103°54'1 1.1
2015-Jul-30 05:33N 01°15' E 103°53'7 7.2
2015-Jul-30 04:33N 01°15' E 103°46'3 2.2
2015-Jul-30 03:22N 01°17' E 103°45'0 0.0
2015-Jul-30 02:28N 01°17' E 103°45'0 0.0
2015-Jul-30 01:28N 01°17' E 103°45'0 0.0
2015-Jul-30 00:28N 01°17' E 103°45'0 0.0
2015-Jul-29 23:28N 01°17' E 103°45'0 0.0
2015-Jul-29 22:28N 01°17' E 103°45'0 0.0
2015-Jul-29 21:25N 01°17' E 103°45'4 4.1
2015-Jul-29 20:33N 01°14' E 103°47'8 8.0
2015-Jul-29 19:33N 01°14' E 103°55'1110.8
2015-Jul-29 18:33N 01°17' E 104°06'  
Track history (hours):
 
Tides and Currents Weather Stations Pressure Air Temp Water Temp Dewpoint Dewpoint Depression Visibility Wind Speed Wind Dir Waves Ship Positions

Bergamot Ace

Last reported at 2015-Jul-31 08:33 UTC. Time now 2015-Aug-03 04:34 UTC.
Position N 03°39' E 100°13'.

Length 186 m; draft 7.7 m.

Type: Ship. MMSI: 319740000.

Date/timePositionNaut miles runAvg speedWind from/ knotsBaromVisibWave heightAir tempDewpointWater temp
2015-Jul-31 08:33N 03°39' E 100°13'4414.5
2015-Jul-31 05:33N 03°07' E 100°43'4715.8
2015-Jul-31 02:33N 02°40' E 101°22'1515.3
2015-Jul-31 01:33N 02°30' E 101°34'4314.3
2015-Jul-30 22:32N 02°03' E 102°08'10016.2
2015-Jul-30 16:20N 01°12' E 103°34'1113.5
2015-Jul-30 15:33N 01°08' E 103°44'1111.2
2015-Jul-30 14:34N 01°13' E 103°54'2 2.3
2015-Jul-30 13:30N 01°16' E 103°54'0 0.0
2015-Jul-30 12:33N 01°16' E 103°54'0 0.0
2015-Jul-30 11:33N 01°16' E 103°54'0 0.0
2015-Jul-30 10:33N 01°16' E 103°54'0 0.0
2015-Jul-30 09:27N 01°16' E 103°54'0 0.0
2015-Jul-30 08:33N 01°16' E 103°54'0 0.0
2015-Jul-30 07:27N 01°16' E 103°54'0 0.0
2015-Jul-30 06:30N 01°16' E 103°54'1 1.1
2015-Jul-30 05:33N 01°15' E 103°53'7 7.2
2015-Jul-30 04:33N 01°15' E 103°46'3 2.2
2015-Jul-30 03:22N 01°17' E 103°45'0 0.0
2015-Jul-30 02:28N 01°17' E 103°45'0 0.0
2015-Jul-30 01:28N 01°17' E 103°45'0 0.0
2015-Jul-30 00:28N 01°17' E 103°45'0 0.0
2015-Jul-29 23:28N 01°17' E 103°45'0 0.0
2015-Jul-29 22:28N 01°17' E 103°45'0 0.0
2015-Jul-29 21:25N 01°17' E 103°45'4 4.1
2015-Jul-29 20:33N 01°14' E 103°47'8 8.0
2015-Jul-29 19:33N 01°14' E 103°55'1110.8
2015-Jul-29 18:33N 01°17' E 104°06'  

Dump ship's entire track history